createdAt,value
2022-09-28T00:00:50.399Z,7.7
2022-09-28T00:02:50.852Z,7.7
2022-09-28T00:04:50.474Z,7.7
2022-09-28T00:06:50.753Z,7.7
2022-09-28T00:08:50.796Z,7.7
2022-09-28T00:10:50.657Z,7.7
2022-09-28T00:12:50.417Z,7.7
2022-09-28T00:14:50.328Z,7.7
2022-09-28T00:16:50.816Z,7.7
2022-09-28T00:18:50.709Z,7.7
2022-09-28T00:20:50.712Z,7.7
2022-09-28T00:22:50.659Z,7.7
2022-09-28T00:24:50.350Z,7.7
2022-09-28T00:26:50.249Z,7.7
2022-09-28T00:28:50.102Z,7.7
2022-09-28T00:30:50.856Z,7.7
2022-09-28T00:32:50.651Z,7.7
2022-09-28T00:34:49.998Z,7.8
2022-09-28T00:36:50.112Z,7.8
2022-09-28T00:38:50.050Z,7.8
2022-09-28T00:40:51.127Z,7.8
2022-09-28T00:42:50.187Z,7.8
2022-09-28T00:44:50.018Z,7.8
2022-09-28T00:46:50.101Z,7.8
2022-09-28T00:48:50.803Z,7.7
2022-09-28T00:50:50.711Z,7.7
2022-09-28T00:52:50.698Z,7.7
2022-09-28T00:54:50.555Z,7.7
2022-09-28T00:56:50.614Z,7.7
2022-09-28T00:58:50.531Z,7.7
2022-09-28T01:00:50.586Z,7.6
2022-09-28T01:02:50.585Z,7.6
2022-09-28T01:04:49.981Z,7.6
2022-09-28T01:06:50.014Z,7.7
2022-09-28T01:08:50.904Z,7.7
2022-09-28T01:10:50.769Z,7.6
2022-09-28T01:12:50.706Z,7.6
2022-09-28T01:14:50.532Z,7.6
2022-09-28T01:16:51.051Z,7.6
2022-09-28T01:18:50.826Z,7.6
2022-09-28T01:20:50.672Z,7.6
2022-09-28T01:22:50.739Z,7.6
2022-09-28T01:24:50.602Z,7.6
2022-09-28T01:26:50.850Z,7.6
2022-09-28T01:28:50.786Z,7.6
2022-09-28T01:30:50.741Z,7.6
2022-09-28T01:32:50.645Z,7.6
2022-09-28T01:34:50.019Z,7.6
2022-09-28T01:36:49.988Z,7.6
2022-09-28T01:38:49.946Z,7.6
2022-09-28T01:40:51.069Z,7.6
2022-09-28T01:42:50.043Z,7.6
2022-09-28T01:44:50.850Z,7.6
2022-09-28T01:46:49.981Z,7.6
2022-09-28T01:48:50.824Z,7.6
2022-09-28T01:50:50.636Z,7.6
2022-09-28T01:52:50.460Z,7.6
2022-09-28T01:54:50.321Z,7.6
2022-09-28T01:56:50.428Z,7.7
2022-09-28T01:58:50.433Z,7.7
2022-09-28T02:00:50.338Z,7.7
2022-09-28T02:02:50.388Z,7.8
2022-09-28T02:04:50.555Z,7.8
2022-09-28T02:06:50.843Z,7.8
2022-09-28T02:08:50.052Z,7.8
2022-09-28T02:10:49.971Z,7.8
2022-09-28T02:12:50.808Z,7.8
2022-09-28T02:14:50.528Z,7.8
2022-09-28T02:16:50.841Z,7.9
2022-09-28T02:18:50.669Z,7.9
2022-09-28T02:20:50.516Z,7.9
2022-09-28T02:22:50.284Z,7.9
2022-09-28T02:24:49.933Z,7.9
2022-09-28T02:26:50.158Z,7.9
2022-09-28T02:28:50.108Z,7.9
2022-09-28T02:30:49.985Z,7.9
2022-09-28T02:32:50.700Z,7.9
2022-09-28T02:34:50.022Z,7.9
2022-09-28T02:36:50.186Z,8.0
2022-09-28T02:38:50.877Z,8.0
2022-09-28T02:40:51.149Z,8.0
2022-09-28T02:42:50.168Z,8.0
2022-09-28T02:44:49.985Z,8.0
2022-09-28T02:46:50.176Z,8.0
2022-09-28T02:49:30.130Z,8.0
2022-09-28T02:50:50.285Z,8.0
2022-09-28T02:52:50.132Z,8.0
2022-09-28T02:54:50.913Z,8.0
2022-09-28T02:56:50.063Z,8.0
2022-09-28T02:58:50.753Z,8.0
2022-09-28T03:00:50.800Z,8.0
2022-09-28T03:02:50.658Z,8.0
2022-09-28T03:04:50.167Z,8.0
2022-09-28T03:06:50.187Z,8.0
2022-09-28T03:08:49.995Z,8.0
2022-09-28T03:10:50.867Z,8.0
2022-09-28T03:12:50.694Z,8.0
2022-09-28T03:14:50.396Z,8.0
2022-09-28T03:16:50.513Z,8.0
2022-09-28T03:18:50.473Z,7.9
2022-09-28T03:20:50.344Z,7.9
2022-09-28T03:23:24.628Z,7.9
2022-09-28T03:24:50.576Z,7.9
2022-09-28T03:26:50.805Z,7.9
2022-09-28T03:28:50.699Z,7.9
2022-09-28T03:30:50.486Z,7.9
2022-09-28T03:32:50.422Z,7.9
2022-09-28T03:34:50.630Z,7.8
2022-09-28T03:36:50.782Z,7.8
2022-09-28T03:38:50.608Z,7.8
2022-09-28T03:40:50.727Z,7.8
2022-09-28T03:42:49.988Z,7.8
2022-09-28T03:44:50.906Z,7.8
2022-09-28T03:46:50.152Z,7.8
2022-09-28T03:48:50.010Z,7.7
2022-09-28T03:50:50.768Z,7.7
2022-09-28T03:52:50.661Z,7.7
2022-09-28T03:54:50.564Z,7.7
2022-09-28T03:56:50.790Z,7.7
2022-09-28T03:58:50.637Z,7.7
2022-09-28T04:00:50.871Z,7.7
2022-09-28T04:02:49.939Z,7.7
2022-09-28T04:04:50.458Z,7.7
2022-09-28T04:06:50.714Z,7.7
2022-09-28T04:08:50.567Z,7.7
2022-09-28T04:10:50.541Z,7.7
2022-09-28T04:12:50.524Z,7.7
2022-09-28T04:14:50.440Z,7.7
2022-09-28T04:16:50.094Z,7.7
2022-09-28T04:18:49.951Z,7.7
2022-09-28T04:20:50.736Z,7.8
2022-09-28T04:22:50.737Z,7.8
2022-09-28T04:24:49.905Z,7.8
2022-09-28T04:26:50.922Z,7.8
2022-09-28T04:28:50.655Z,7.8
2022-09-28T04:30:50.595Z,7.8
2022-09-28T04:32:50.551Z,7.8
2022-09-28T04:34:50.619Z,7.8
2022-09-28T04:36:50.898Z,7.8
2022-09-28T04:38:54.081Z,7.8
2022-09-28T04:40:51.126Z,7.8
2022-09-28T04:42:50.454Z,7.9
2022-09-28T04:44:50.289Z,7.9
2022-09-28T04:46:50.467Z,7.9
2022-09-28T04:48:50.333Z,7.9
2022-09-28T04:50:50.344Z,7.9
2022-09-28T04:52:50.083Z,7.9
2022-09-28T04:54:50.881Z,7.9
2022-09-28T04:56:49.974Z,8.0
2022-09-28T04:58:53.352Z,8.0
2022-09-28T05:00:50.537Z,8.0
2022-09-28T05:02:50.353Z,8.0
2022-09-28T05:04:50.734Z,8.0
2022-09-28T05:06:50.882Z,8.0
2022-09-28T05:08:49.925Z,8.0
2022-09-28T05:10:50.887Z,8.1
2022-09-28T05:12:50.724Z,8.1
2022-09-28T05:14:50.558Z,8.1
2022-09-28T05:16:51.144Z,8.1
2022-09-28T05:18:49.930Z,8.1
2022-09-28T05:20:50.755Z,8.1
2022-09-28T05:22:50.703Z,8.1
2022-09-28T05:24:50.714Z,8.2
2022-09-28T05:26:50.317Z,8.2
2022-09-28T05:28:50.311Z,8.2
2022-09-28T05:30:50.120Z,8.2
2022-09-28T05:32:50.819Z,8.2
2022-09-28T05:34:50.266Z,8.2
2022-09-28T05:36:50.351Z,8.2
2022-09-28T05:38:50.148Z,8.2
2022-09-28T05:40:50.688Z,8.2
2022-09-28T05:42:50.693Z,8.3
2022-09-28T05:44:50.861Z,8.3
2022-09-28T05:46:50.918Z,8.4
2022-09-28T05:48:50.750Z,8.4
2022-09-28T05:50:50.708Z,8.4
2022-09-28T05:52:50.743Z,8.4
2022-09-28T05:54:50.434Z,8.4
2022-09-28T05:56:50.644Z,8.4
2022-09-28T05:58:50.646Z,8.4
2022-09-28T06:00:50.754Z,8.4
2022-09-28T06:02:51.238Z,8.4
2022-09-28T06:04:50.698Z,8.4
2022-09-28T06:06:49.991Z,8.5
2022-09-28T06:08:50.863Z,8.5
2022-09-28T06:10:50.002Z,8.5
2022-09-28T06:12:50.845Z,8.6
2022-09-28T06:14:50.712Z,8.6
2022-09-28T06:16:51.156Z,8.6
2022-09-28T06:18:50.349Z,8.6
2022-09-28T06:20:50.263Z,8.7
2022-09-28T06:22:50.065Z,8.7
2022-09-28T06:24:50.918Z,8.8
2022-09-28T06:26:50.048Z,8.8
2022-09-28T06:28:50.270Z,8.8
2022-09-28T06:30:50.316Z,8.9
2022-09-28T06:32:50.440Z,8.9
2022-09-28T06:34:56.843Z,8.9
2022-09-28T06:36:50.390Z,8.9
2022-09-28T06:38:50.283Z,8.9
2022-09-28T06:40:50.699Z,9.0
2022-09-28T06:42:50.684Z,9.1
2022-09-28T06:44:50.563Z,9.1
2022-09-28T06:46:49.910Z,9.1
2022-09-28T06:48:50.787Z,9.1
2022-09-28T06:50:50.593Z,9.2
2022-09-28T06:52:50.426Z,9.2
2022-09-28T06:54:50.418Z,9.2
2022-09-28T06:56:50.430Z,9.3
2022-09-28T06:58:50.110Z,9.3
2022-09-28T07:00:50.169Z,9.3
2022-09-28T07:02:50.192Z,9.3
2022-09-28T07:04:50.821Z,9.3
2022-09-28T07:06:50.043Z,9.4
2022-09-28T07:09:29.065Z,9.4
2022-09-28T07:10:50.108Z,9.4
2022-09-28T07:12:50.030Z,9.4
2022-09-28T07:14:51.390Z,9.4
2022-09-28T07:17:14.321Z,9.4
2022-09-28T07:18:50.115Z,9.4
2022-09-28T07:20:55.113Z,9.4
2022-09-28T07:22:49.938Z,9.4
2022-09-28T07:24:50.334Z,9.5
2022-09-28T07:26:50.699Z,9.5
2022-09-28T07:28:50.516Z,9.6
2022-09-28T07:30:50.841Z,9.6
2022-09-28T07:32:49.975Z,9.6
2022-09-28T07:34:59.143Z,9.6
2022-09-28T07:36:50.430Z,9.6
2022-09-28T07:38:50.537Z,9.7
2022-09-28T07:40:50.899Z,9.7
2022-09-28T07:42:50.897Z,9.7
2022-09-28T07:44:50.751Z,9.8
2022-09-28T07:46:50.872Z,9.8
2022-09-28T07:48:50.891Z,9.8
2022-09-28T07:50:50.740Z,9.9
2022-09-28T07:52:50.565Z,9.9
2022-09-28T07:54:50.636Z,10.0
2022-09-28T07:56:50.116Z,10.1
2022-09-28T07:58:50.052Z,10.1
2022-09-28T08:00:51.415Z,10.2
2022-09-28T08:02:50.533Z,10.2
2022-09-28T08:04:50.167Z,10.2
2022-09-28T08:06:50.393Z,10.2
2022-09-28T08:08:50.205Z,10.2
2022-09-28T08:10:50.246Z,10.2
2022-09-28T08:12:50.293Z,10.2
2022-09-28T08:14:50.385Z,10.2
2022-09-28T08:16:53.802Z,10.1
2022-09-28T08:18:50.712Z,10.1
2022-09-28T08:20:52.238Z,10.1
2022-09-28T08:22:50.440Z,10.1
2022-09-28T08:24:50.521Z,10.1
2022-09-28T08:26:50.859Z,10.1
2022-09-28T08:28:50.788Z,10.1
2022-09-28T08:30:51.039Z,10.1
2022-09-28T08:32:50.001Z,10.1
2022-09-28T08:34:50.255Z,10.2
2022-09-28T08:36:50.384Z,10.2
2022-09-28T08:38:50.389Z,10.2
2022-09-28T08:40:50.879Z,10.3
2022-09-28T08:42:50.827Z,10.3
2022-09-28T08:44:50.804Z,10.4
2022-09-28T08:46:50.058Z,10.4
2022-09-28T08:49:25.235Z,10.4
2022-09-28T08:50:50.248Z,10.4
2022-09-28T08:52:50.124Z,10.4
2022-09-28T08:54:50.832Z,10.4
2022-09-28T08:56:50.232Z,10.4
2022-09-28T08:58:50.008Z,10.4
2022-09-28T09:00:50.318Z,10.5
2022-09-28T09:02:50.678Z,10.5
2022-09-28T09:04:50.178Z,10.6
2022-09-28T09:06:50.661Z,10.6
2022-09-28T09:08:50.506Z,10.6
2022-09-28T09:10:50.298Z,10.8
2022-09-28T09:12:50.571Z,10.9
2022-09-28T09:14:50.577Z,11.1
2022-09-28T09:16:51.307Z,11.2
2022-09-28T09:18:50.249Z,11.2
2022-09-28T09:20:49.983Z,11.2
2022-09-28T09:22:50.764Z,11.1
2022-09-28T09:24:50.749Z,11.1
2022-09-28T09:26:50.108Z,11.1
2022-09-28T09:28:49.977Z,11.1
2022-09-28T09:30:51.033Z,11.1
2022-09-28T09:32:50.140Z,11.0
2022-09-28T09:34:50.623Z,11.0
2022-09-28T09:36:49.986Z,11.0
2022-09-28T09:38:49.913Z,11.0
2022-09-28T09:40:51.374Z,11.0
2022-09-28T09:42:50.417Z,11.0
2022-09-28T09:44:50.323Z,11.0
2022-09-28T09:46:50.385Z,10.8
2022-09-28T09:48:50.230Z,10.8
2022-09-28T09:50:50.092Z,10.9
2022-09-28T09:52:50.029Z,10.9
2022-09-28T09:54:50.150Z,10.9
2022-09-28T09:56:50.306Z,11.0
2022-09-28T09:58:50.211Z,11.0
2022-09-28T10:00:50.028Z,11.0
2022-09-28T10:02:50.515Z,11.0
2022-09-28T10:04:50.054Z,11.0
2022-09-28T10:06:50.095Z,10.9
2022-09-28T10:08:50.927Z,10.9
2022-09-28T10:10:50.910Z,10.9
2022-09-28T10:12:50.764Z,10.9
2022-09-28T10:14:50.674Z,10.9
2022-09-28T10:16:51.154Z,10.9
2022-09-28T10:18:50.142Z,10.9
2022-09-28T10:20:50.024Z,11.0
2022-09-28T10:22:50.875Z,11.0
2022-09-28T10:24:50.696Z,10.9
2022-09-28T10:26:49.982Z,11.0
2022-09-28T10:28:50.684Z,11.1
2022-09-28T10:30:51.150Z,11.1
2022-09-28T10:32:50.335Z,11.2
2022-09-28T10:34:51.586Z,11.3
2022-09-28T10:36:49.932Z,11.5
2022-09-28T10:38:50.820Z,11.6
2022-09-28T10:40:51.322Z,11.8
2022-09-28T10:42:50.509Z,11.8
2022-09-28T10:44:50.383Z,11.8
2022-09-28T10:46:50.471Z,11.9
2022-09-28T10:48:50.325Z,11.9
2022-09-28T10:50:50.209Z,12.0
2022-09-28T10:52:50.254Z,12.0
2022-09-28T10:54:50.131Z,12.0
2022-09-28T10:56:50.336Z,12.0
2022-09-28T10:58:50.746Z,12.0
2022-09-28T11:00:50.691Z,12.0
2022-09-28T11:02:50.912Z,11.9
2022-09-28T11:04:50.284Z,11.9
2022-09-28T11:06:50.817Z,12.0
2022-09-28T11:08:50.861Z,12.0
2022-09-28T11:10:50.613Z,12.0
2022-09-28T11:12:50.469Z,12.0
2022-09-28T11:14:50.264Z,12.2
2022-09-28T11:16:50.791Z,12.3
2022-09-28T11:18:50.845Z,12.5
2022-09-28T11:20:50.666Z,12.5
2022-09-28T11:22:53.851Z,12.5
2022-09-28T11:24:50.876Z,12.6
2022-09-28T11:26:50.876Z,12.6
2022-09-28T11:28:50.666Z,12.6
2022-09-28T11:30:50.868Z,12.5
2022-09-28T11:32:50.809Z,12.5
2022-09-28T11:35:00.868Z,12.4
2022-09-28T11:36:50.063Z,12.4
2022-09-28T11:38:50.901Z,12.4
2022-09-28T11:40:51.106Z,12.5
2022-09-28T11:42:50.265Z,12.5
2022-09-28T11:44:50.250Z,12.6
2022-09-28T11:46:50.532Z,12.6
2022-09-28T11:48:50.324Z,12.6
2022-09-28T11:50:50.376Z,12.7
2022-09-28T11:52:50.273Z,12.7
2022-09-28T11:54:50.125Z,12.8
2022-09-28T11:56:50.023Z,12.8
2022-09-28T11:58:50.049Z,12.8
2022-09-28T12:00:50.840Z,12.9
2022-09-28T12:02:51.178Z,12.9
2022-09-28T12:04:50.894Z,12.9
2022-09-28T12:06:50.052Z,12.9
2022-09-28T12:08:50.934Z,12.9
2022-09-28T12:10:49.958Z,13.0
2022-09-28T12:12:49.962Z,13.0
2022-09-28T12:14:50.801Z,13.0
2022-09-28T12:17:08.812Z,13.0
2022-09-28T12:18:50.703Z,13.0
2022-09-28T12:20:50.774Z,13.0
2022-09-28T12:22:50.724Z,12.9
2022-09-28T12:24:50.730Z,12.9
2022-09-28T12:26:49.960Z,13.0
2022-09-28T12:28:50.868Z,13.0
2022-09-28T12:30:51.044Z,13.2
2022-09-28T12:32:49.992Z,13.2
2022-09-28T12:34:50.044Z,13.2
2022-09-28T13:08:50.270Z,13.5
2022-09-28T13:10:50.213Z,13.5
2022-09-28T13:12:50.173Z,13.5
2022-09-28T13:14:50.047Z,13.8
2022-09-28T13:16:50.181Z,13.8
2022-09-28T13:18:50.025Z,13.8
2022-09-28T13:20:50.880Z,13.9
2022-09-28T13:22:50.770Z,13.9
2022-09-28T13:24:50.830Z,13.9
2022-09-28T13:26:50.083Z,13.9
2022-09-28T13:28:49.995Z,13.9
2022-09-28T13:30:51.244Z,13.9
2022-09-28T13:32:50.281Z,14.0
2022-09-28T13:34:50.597Z,14.0
2022-09-28T13:36:49.930Z,14.0
2022-09-28T13:38:50.654Z,14.0
2022-09-28T13:40:50.840Z,14.1
2022-09-28T13:42:50.067Z,14.1
2022-09-28T13:44:50.902Z,14.2
2022-09-28T13:46:50.863Z,14.2
2022-09-28T13:48:50.800Z,14.2
2022-09-28T13:50:50.917Z,14.1
2022-09-28T13:52:50.710Z,14.1
2022-09-28T13:54:50.381Z,14.1
2022-09-28T13:56:50.652Z,14.0
2022-09-28T13:58:50.672Z,14.1
2022-09-28T14:00:50.829Z,14.1
2022-09-28T14:02:50.911Z,14.1
2022-09-28T14:04:50.398Z,14.1
2022-09-28T14:06:56.115Z,14.1
2022-09-28T14:08:50.263Z,14.2
2022-09-28T14:10:50.155Z,14.2
2022-09-28T14:12:49.945Z,14.2
2022-09-28T14:14:50.740Z,14.3
2022-09-28T14:16:50.948Z,14.3
2022-09-28T14:18:50.850Z,14.3
2022-09-28T14:20:50.694Z,14.3
2022-09-28T14:22:50.627Z,14.3
2022-09-28T14:24:50.545Z,14.2
2022-09-28T14:26:50.861Z,14.2
2022-09-28T14:28:50.706Z,14.2
2022-09-28T14:30:50.930Z,14.2
2022-09-28T14:32:49.937Z,14.2
2022-09-28T14:34:50.050Z,14.2
2022-09-28T14:36:49.966Z,14.3
2022-09-28T14:38:50.682Z,14.3
2022-09-28T14:40:50.882Z,14.2
2022-09-28T14:44:50.168Z,14.0
2022-09-28T14:46:50.249Z,14.0
2022-09-28T14:48:50.056Z,13.9
2022-09-28T14:50:49.968Z,13.8
2022-09-28T14:52:49.988Z,13.8
2022-09-28T14:54:50.690Z,13.7
2022-09-28T14:56:50.870Z,13.7
2022-09-28T14:58:50.755Z,13.7
2022-09-28T15:00:50.706Z,13.7
2022-09-28T15:02:50.689Z,13.8
2022-09-28T15:04:50.719Z,13.8
2022-09-28T15:06:50.303Z,13.8
2022-09-28T15:08:50.257Z,13.8
2022-09-28T15:10:50.301Z,13.8
2022-09-28T15:12:49.951Z,13.7
2022-09-28T15:14:49.943Z,13.7
2022-09-28T15:16:49.983Z,13.7
2022-09-28T15:18:49.956Z,13.6
2022-09-28T15:20:50.650Z,13.5
2022-09-28T15:22:50.528Z,13.5
2022-09-28T15:24:50.234Z,13.4
2022-09-28T15:26:50.456Z,13.4
2022-09-28T15:28:50.530Z,13.4
2022-09-28T15:30:50.675Z,13.3
2022-09-28T15:32:50.675Z,13.2
2022-09-28T15:34:50.088Z,13.2
2022-09-28T15:36:50.334Z,13.1
2022-09-28T15:38:49.941Z,13.1
2022-09-28T15:40:51.218Z,13.0
2022-09-28T15:42:50.418Z,13.0
2022-09-28T15:44:50.234Z,13.0
2022-09-28T15:46:50.323Z,13.0
2022-09-28T15:48:50.060Z,13.0
2022-09-28T15:50:50.853Z,13.0
2022-09-28T15:52:50.527Z,13.0
2022-09-28T15:54:50.515Z,13.0
2022-09-28T15:56:50.588Z,12.9
2022-09-28T15:58:50.314Z,12.9
2022-09-28T16:00:50.309Z,12.8
2022-09-28T16:02:50.468Z,12.7
2022-09-28T16:04:50.103Z,12.7
2022-09-28T16:06:50.326Z,12.7
2022-09-28T16:08:50.305Z,12.6
2022-09-28T16:10:50.238Z,12.6
2022-09-28T16:12:50.126Z,12.6
2022-09-28T16:14:50.837Z,12.6
2022-09-28T16:16:50.791Z,12.5
2022-09-28T16:18:50.709Z,12.4
2022-09-28T16:20:50.637Z,12.4
2022-09-28T16:22:50.559Z,12.3
2022-09-28T16:24:50.572Z,12.3
2022-09-28T16:26:50.714Z,12.2
2022-09-28T16:28:50.676Z,12.2
2022-09-28T16:30:50.769Z,12.2
2022-09-28T16:32:50.653Z,12.1
2022-09-28T16:34:50.225Z,12.1
2022-09-28T16:36:50.267Z,12.0
2022-09-28T16:38:50.052Z,12.0
2022-09-28T16:40:50.614Z,12.0
2022-09-28T16:42:50.650Z,11.9
2022-09-28T16:44:50.524Z,11.9
2022-09-28T16:46:50.972Z,11.9
2022-09-28T16:48:49.979Z,11.8
2022-09-28T16:50:50.005Z,11.8
2022-09-28T16:52:49.930Z,11.8
2022-09-28T16:54:50.833Z,11.7
2022-09-28T16:56:50.082Z,11.7
2022-09-28T16:58:50.017Z,11.7
2022-09-28T17:00:49.976Z,11.7
2022-09-28T17:02:50.999Z,11.6
2022-09-28T17:04:50.236Z,11.6
2022-09-28T17:06:50.141Z,11.6
2022-09-28T17:08:50.003Z,11.6
2022-09-28T17:11:20.394Z,11.6
2022-09-28T17:12:50.861Z,11.5
2022-09-28T17:14:50.677Z,11.5
2022-09-28T17:17:17.071Z,11.5
2022-09-28T17:18:50.388Z,11.5
2022-09-28T17:20:50.174Z,11.5
2022-09-28T17:22:50.096Z,11.4
2022-09-28T17:24:50.016Z,11.4
2022-09-28T17:26:50.270Z,11.4
2022-09-28T17:28:50.177Z,11.4
2022-09-28T17:30:50.311Z,11.4
2022-09-28T17:32:50.381Z,11.4
2022-09-28T17:35:24.469Z,11.4
2022-09-28T17:36:50.751Z,11.4
2022-09-28T17:38:50.629Z,11.3
2022-09-28T17:40:50.735Z,11.3
2022-09-28T17:42:50.658Z,11.3
2022-09-28T17:44:50.473Z,11.2
2022-09-28T17:46:50.684Z,11.2
2022-09-28T17:48:50.655Z,11.2
2022-09-28T17:50:50.651Z,11.1
2022-09-28T17:52:50.813Z,11.1
2022-09-28T17:54:50.785Z,11.0
2022-09-28T17:56:50.883Z,11.0
2022-09-28T17:58:50.702Z,11.0
2022-09-28T18:00:50.479Z,10.9
2022-09-28T18:02:50.936Z,10.8
2022-09-28T18:04:54.040Z,10.8
2022-09-28T18:06:50.425Z,10.8
2022-09-28T18:08:50.294Z,10.8
2022-09-28T18:10:50.104Z,10.7
2022-09-28T18:12:50.894Z,10.7
2022-09-28T18:14:50.729Z,10.6
2022-09-28T18:16:49.987Z,10.6
2022-09-28T18:18:50.169Z,10.6
2022-09-28T18:20:50.760Z,10.4
2022-09-28T18:22:50.651Z,10.4
2022-09-28T18:24:50.714Z,10.4
2022-09-28T18:26:50.260Z,10.3
2022-09-28T18:28:50.128Z,10.3
2022-09-28T18:30:51.101Z,10.2
2022-09-28T18:32:50.031Z,10.2
2022-09-28T18:34:50.283Z,10.1
2022-09-28T18:36:50.850Z,10.0
2022-09-28T18:38:50.668Z,10.0
2022-09-28T18:40:51.053Z,10.0
2022-09-28T18:42:50.023Z,9.9
2022-09-28T18:44:50.797Z,9.9
2022-09-28T18:46:50.313Z,9.9
2022-09-28T18:48:50.205Z,9.8
2022-09-28T18:50:50.104Z,9.8
2022-09-28T18:52:49.997Z,9.8
2022-09-28T18:54:49.962Z,9.8
2022-09-28T18:56:50.076Z,9.7
2022-09-28T18:58:49.982Z,9.7
2022-09-28T19:00:50.811Z,9.6
2022-09-28T19:02:50.657Z,9.6
2022-09-28T19:04:50.257Z,9.6
2022-09-28T19:06:50.415Z,9.5
2022-09-28T19:08:50.316Z,9.4
2022-09-28T19:10:50.260Z,9.4
2022-09-28T19:12:50.268Z,9.4
2022-09-28T19:14:49.949Z,9.3
2022-09-28T19:16:50.031Z,9.3
2022-09-28T19:18:50.059Z,9.2
2022-09-28T19:20:50.129Z,9.1
2022-09-28T19:22:49.951Z,9.1
2022-09-28T19:24:50.792Z,9.1
2022-09-28T19:26:50.081Z,9.0
2022-09-28T19:28:50.006Z,8.9
2022-09-28T19:30:51.331Z,8.9
2022-09-28T19:32:50.413Z,8.9
2022-09-28T19:34:50.760Z,8.9
2022-09-28T19:36:49.922Z,8.8
2022-09-28T19:38:50.867Z,8.7
2022-09-28T19:40:51.156Z,8.7
2022-09-28T19:42:50.074Z,8.7
2022-09-28T19:44:49.983Z,8.6
2022-09-28T19:46:49.984Z,8.5
2022-09-28T19:48:49.957Z,8.4
2022-09-28T19:50:50.837Z,8.4
2022-09-28T19:52:50.691Z,8.4
2022-09-28T19:54:50.471Z,8.4
2022-09-28T19:56:50.673Z,8.3
2022-09-28T19:58:50.667Z,8.3
2022-09-28T20:00:50.668Z,8.3
2022-09-28T20:02:50.936Z,8.3
2022-09-28T20:04:50.680Z,8.2
2022-09-28T20:06:50.017Z,8.2
2022-09-28T20:08:50.883Z,8.2
2022-09-28T20:10:50.948Z,8.2
2022-09-28T20:12:50.735Z,8.1
2022-09-28T20:14:50.680Z,8.1
2022-09-28T20:16:49.879Z,8.0
2022-09-28T20:18:50.758Z,8.0
2022-09-28T20:20:50.636Z,8.0
2022-09-28T20:22:50.485Z,7.9
2022-09-28T20:24:50.572Z,7.8
2022-09-28T20:26:50.742Z,7.8
2022-09-28T20:28:50.560Z,7.8
2022-09-28T20:30:50.651Z,7.8
2022-09-28T20:32:50.870Z,7.7
2022-09-28T20:34:50.283Z,7.7
2022-09-28T20:36:50.644Z,7.7
2022-09-28T20:38:50.427Z,7.7
2022-09-28T20:40:50.468Z,7.7
2022-09-28T20:42:50.379Z,7.7
2022-09-28T20:44:50.357Z,7.6
2022-09-28T20:46:50.708Z,7.6
2022-09-28T20:48:50.654Z,7.6
2022-09-28T20:50:50.485Z,7.6
2022-09-28T20:52:50.205Z,7.6
2022-09-28T20:54:50.085Z,7.6
2022-09-28T20:56:50.129Z,7.6
2022-09-28T20:58:50.008Z,7.6
2022-09-28T21:00:50.811Z,7.6
2022-09-28T21:02:51.107Z,7.6
2022-09-28T21:04:50.294Z,7.6
2022-09-28T21:06:50.541Z,7.6
2022-09-28T21:08:50.404Z,7.6
2022-09-28T21:10:50.338Z,7.6
2022-09-28T21:12:50.255Z,7.6
2022-09-28T21:14:50.346Z,7.6
2022-09-28T21:16:50.422Z,7.6
2022-09-28T21:18:50.174Z,7.5
2022-09-28T21:20:50.264Z,7.4
2022-09-28T21:22:50.193Z,7.3
2022-09-28T21:24:49.986Z,7.3
2022-09-28T21:26:49.969Z,7.3
2022-09-28T21:28:50.806Z,7.3
2022-09-28T21:30:50.925Z,7.2
2022-09-28T21:32:50.159Z,7.2
2022-09-28T21:34:50.135Z,7.1
2022-09-28T21:36:50.240Z,7.1
2022-09-28T21:38:50.201Z,7.1
2022-09-28T21:40:50.477Z,7.1
2022-09-28T21:42:50.617Z,7.0
2022-09-28T21:44:50.418Z,7.0
2022-09-28T21:46:50.560Z,6.9
2022-09-28T21:48:50.429Z,6.9
2022-09-28T21:50:50.408Z,6.8
2022-09-28T21:52:50.278Z,6.8
2022-09-28T21:54:50.003Z,6.7
2022-09-28T21:56:49.959Z,6.7
2022-09-28T21:58:50.885Z,6.7
2022-09-28T22:00:50.762Z,6.6
2022-09-28T22:02:51.010Z,6.6
2022-09-28T22:04:50.700Z,6.5
2022-09-28T22:06:50.032Z,6.5
2022-09-28T22:08:50.848Z,6.4
2022-09-28T22:10:50.737Z,6.3
2022-09-28T22:12:50.480Z,6.3
2022-09-28T22:14:50.229Z,6.3
2022-09-28T22:16:50.640Z,6.2
2022-09-28T22:18:50.676Z,6.2
2022-09-28T22:20:50.664Z,6.2
2022-09-28T22:22:50.517Z,6.2
2022-09-28T22:24:50.126Z,6.2
2022-09-28T22:26:49.982Z,6.2
2022-09-28T22:28:50.761Z,6.2
2022-09-28T22:30:50.956Z,6.1
2022-09-28T22:32:49.903Z,6.1
2022-09-28T22:34:50.225Z,6.0
2022-09-28T22:36:50.301Z,6.0
2022-09-28T22:38:50.261Z,5.9
2022-09-28T22:40:50.469Z,5.9
2022-09-28T22:42:50.756Z,5.8
2022-09-28T22:44:50.691Z,5.8
2022-09-28T22:46:51.610Z,5.8
2022-09-28T22:48:50.835Z,5.8
2022-09-28T22:50:50.722Z,5.8
2022-09-28T22:52:50.807Z,5.8
2022-09-28T22:54:50.575Z,5.7
2022-09-28T22:56:49.968Z,5.7
2022-09-28T22:58:50.813Z,5.6
2022-09-28T23:00:50.739Z,5.6
2022-09-28T23:02:50.765Z,5.5
2022-09-28T23:04:50.122Z,5.5
2022-09-28T23:06:50.121Z,5.4
2022-09-28T23:08:49.926Z,5.4
2022-09-28T23:10:50.915Z,5.4
2022-09-28T23:12:50.788Z,5.4
2022-09-28T23:14:50.731Z,5.4
2022-09-28T23:16:49.910Z,5.4
2022-09-28T23:18:50.773Z,5.3
2022-09-28T23:20:50.678Z,5.3
2022-09-28T23:22:50.522Z,5.3
2022-09-28T23:24:50.273Z,5.3
2022-09-28T23:26:50.481Z,5.3
2022-09-28T23:28:50.361Z,5.3
2022-09-28T23:30:50.498Z,5.3
2022-09-28T23:32:50.597Z,5.2
2022-09-28T23:34:50.906Z,5.2
2022-09-28T23:36:50.092Z,5.1
2022-09-28T23:38:50.034Z,5.1
2022-09-28T23:40:50.971Z,5.1
2022-09-28T23:42:50.828Z,5.1
2022-09-28T23:44:49.941Z,5.1
2022-09-28T23:46:50.399Z,5.1
2022-09-28T23:48:50.320Z,5.0
2022-09-28T23:50:50.084Z,5.0
2022-09-28T23:52:50.878Z,5.0
2022-09-28T23:54:50.568Z,5.0
2022-09-28T23:56:50.700Z,5.0
2022-09-28T23:58:50.768Z,4.9
